Parcel Return Service, DC (56972)

11:00 AM EDT on September 23, 2014 (GMT -0400)
Logan Circle | Change Station
CLOSE
Current Station
Personal Weather Station
Location: Washington, DC
Elevation: 108 ft
Nearby Weather Stations

Elev 108 ft 38.91 °N, 77.03 °W | Updated 13 seconds ago

Partly Cloudy
Partly Cloudy
67.3 °F
Feels Like 67.3 °F
N
1.1
Wind Variable Wind from NE
Gusts 6.5 mph

Today
High -- | Low -- °F
--% Chance of Precip.
Yesterday
High -- | Low -- °F
Precip. -- in
6:56 AM 7:03 PM
Waning Crescent, 0% visible
Pressure 30.36 in
Visibility 10.0 miles
Clouds Scattered Clouds 25000 ft
Dew Point 48 °F
Humidity 50%
Rainfall 0.00 in
Snow Depth Not available.
UV 3 out of 12
Pollen Not available.
Air Quality Not available.
Flu Activity Not available.
METAR KDCA 231352Z 04005KT 10SM SCT250 17/06 A3036 RMK AO2 SLP281 T01670061 $

More Conditions Fewer Conditions

Pressure 30.36 in
Visibility 10.0 miles
Clouds Scattered Clouds 25000 ft
Dew Point 48 °F
Humidity 50%
Rainfall 0.00 in
Snow Depth Not available.
UV 3 out of 12
Pollen Not available.
Air Quality Not available.
Flu Activity Not available.
METAR KDCA 231352Z 04005KT 10SM SCT250 17/06 A3036 RMK AO2 SLP281 T01670061 $

More Conditions Fewer Conditions

10-Day Weather Forecast

Almanac

Astronomy

Sep. 23, 2014 Rise Set
Actual Time 6:56 AM EDT 7:03 PM EDT
Civil Twilight 6:30 AM EDT 7:30 PM EDT
Nautical Twilight 5:59 AM EDT 8:01 PM EDT
Astronomical Twilight 5:27 AM EDT 8:32 PM EDT
Moon 6:19 AM EDT 6:41 PM EDT
Length of Visible Light 13h 00m
Length of Day
12h 06m
Tomorrow will be 2m 31s shorter.
Waning Crescent, 0% of the Moon is Illuminated
Today
Waning Crescent
Sep 24
New
Oct 1
First Quarter
Oct 8
Full
Oct 15
Last Quarter

Today's Extremes

State Highs State Lows

Community

WunderPhotos

Upload Photos

1,755,716 photos uploaded!

Nearby

Snow Depth

Station Depth Elevation
No new snow has been reported.

Earthquake Activity

City Distance Mag. Time & Date
No recent earthquake activity has been reported nearby.
Minimum magnitude displayed is 2.5.

Coastal Water Temperatures

Place Temperature
Washington, DC 73.0 °F
Baltimore, MD 73.9 °F
Solomons Island, MD 73.9 °F

Nearby Weather Stations